sensor_id;sensor_type;location;lat;lon;timestamp;pressure;altitude;pressure_sealevel;temperature;humidity
30618;BME280;17384;51.214;9.202;2023-05-24T00:00:28;99235.31;;;4.77;84.81
30618;BME280;17384;51.214;9.202;2023-05-24T00:02:53;99248.25;;;4.73;84.73
30618;BME280;17384;51.214;9.202;2023-05-24T00:05:19;99230.59;;;4.71;84.73
30618;BME280;17384;51.214;9.202;2023-05-24T00:07:44;99236.66;;;4.65;84.99
30618;BME280;17384;51.214;9.202;2023-05-24T00:10:10;99251.09;;;4.64;84.79
30618;BME280;17384;51.214;9.202;2023-05-24T00:12:36;99243.22;;;4.62;84.68
30618;BME280;17384;51.214;9.202;2023-05-24T00:15:02;99246.88;;;4.53;84.83
30618;BME280;17384;51.214;9.202;2023-05-24T00:17:27;99253.59;;;4.49;84.94
30618;BME280;17384;51.214;9.202;2023-05-24T00:19:54;99246.03;;;4.45;84.99
30618;BME280;17384;51.214;9.202;2023-05-24T00:22:20;99259.09;;;4.39;85.02
30618;BME280;17384;51.214;9.202;2023-05-24T00:24:46;99243.00;;;4.31;85.11
30618;BME280;17384;51.214;9.202;2023-05-24T00:27:13;99250.03;;;4.24;85.29
30618;BME280;17384;51.214;9.202;2023-05-24T00:29:38;99255.19;;;4.18;85.45
30618;BME280;17384;51.214;9.202;2023-05-24T00:32:04;99256.69;;;4.04;86.05
30618;BME280;17384;51.214;9.202;2023-05-24T00:34:30;99238.69;;;3.96;86.50
30618;BME280;17384;51.214;9.202;2023-05-24T00:36:55;99251.78;;;3.99;86.52
30618;BME280;17384;51.214;9.202;2023-05-24T00:39:22;99246.03;;;3.86;86.70
30618;BME280;17384;51.214;9.202;2023-05-24T00:41:48;99258.28;;;3.89;86.68
30618;BME280;17384;51.214;9.202;2023-05-24T00:44:13;99264.13;;;3.84;86.75
30618;BME280;17384;51.214;9.202;2023-05-24T00:46:38;99259.59;;;3.85;86.43
30618;BME280;17384;51.214;9.202;2023-05-24T00:49:04;99247.72;;;3.87;86.08
30618;BME280;17384;51.214;9.202;2023-05-24T00:51:30;99258.13;;;3.90;85.68
30618;BME280;17384;51.214;9.202;2023-05-24T00:53:58;99253.06;;;3.87;85.63
30618;BME280;17384;51.214;9.202;2023-05-24T00:56:24;99250.56;;;3.86;85.35
30618;BME280;17384;51.214;9.202;2023-05-24T00:58:50;99252.06;;;3.80;85.71
30618;BME280;17384;51.214;9.202;2023-05-24T01:01:18;99250.53;;;3.78;86.09
30618;BME280;17384;51.214;9.202;2023-05-24T01:03:44;99250.44;;;3.61;85.99
30618;BME280;17384;51.214;9.202;2023-05-24T01:06:12;99254.38;;;3.41;86.85
30618;BME280;17384;51.214;9.202;2023-05-24T01:14:48;99237.91;;;3.36;86.09
30618;BME280;17384;51.214;9.202;2023-05-24T01:17:22;99237.22;;;3.26;86.35
30618;BME280;17384;51.214;9.202;2023-05-24T01:19:57;99247.78;;;3.27;86.22
30618;BME280;17384;51.214;9.202;2023-05-24T01:25:26;99248.97;;;3.33;86.87
30618;BME280;17384;51.214;9.202;2023-05-24T01:28:04;99247.25;;;3.24;86.71
30618;BME280;17384;51.214;9.202;2023-05-24T01:30:30;99243.19;;;3.20;86.91
30618;BME280;17384;51.214;9.202;2023-05-24T01:32:56;99226.53;;;3.08;87.05
30618;BME280;17384;51.214;9.202;2023-05-24T01:35:23;99233.19;;;3.04;87.28
30618;BME280;17384;51.214;9.202;2023-05-24T01:37:48;99237.72;;;3.03;87.36
30618;BME280;17384;51.214;9.202;2023-05-24T01:40:14;99232.34;;;3.03;87.36
30618;BME280;17384;51.214;9.202;2023-05-24T01:43:02;99241.13;;;2.88;87.62
30618;BME280;17384;51.214;9.202;2023-05-24T01:45:40;99235.16;;;2.76;88.33
30618;BME280;17384;51.214;9.202;2023-05-24T01:48:18;99229.66;;;2.78;88.41
30618;BME280;17384;51.214;9.202;2023-05-24T01:50:57;99228.44;;;2.72;88.66
30618;BME280;17384;51.214;9.202;2023-05-24T01:53:25;99235.41;;;2.65;88.77
30618;BME280;17384;51.214;9.202;2023-05-24T01:55:54;99227.69;;;2.62;88.21
30618;BME280;17384;51.214;9.202;2023-05-24T01:58:22;99224.72;;;2.65;88.30
30618;BME280;17384;51.214;9.202;2023-05-24T02:00:48;99227.59;;;2.54;87.69
30618;BME280;17384;51.214;9.202;2023-05-24T02:03:14;99218.19;;;2.50;88.03
30618;BME280;17384;51.214;9.202;2023-05-24T02:05:40;99232.13;;;2.18;88.42
30618;BME280;17384;51.214;9.202;2023-05-24T02:08:08;99231.75;;;2.13;88.82
30618;BME280;17384;51.214;9.202;2023-05-24T02:10:34;99234.81;;;2.18;89.05
30618;BME280;17384;51.214;9.202;2023-05-24T02:13:02;99231.50;;;2.24;89.06
30618;BME280;17384;51.214;9.202;2023-05-24T02:15:28;99228.84;;;2.24;89.00
30618;BME280;17384;51.214;9.202;2023-05-24T02:17:55;99219.34;;;2.47;88.25
30618;BME280;17384;51.214;9.202;2023-05-24T02:20:20;99230.50;;;2.25;88.08
30618;BME280;17384;51.214;9.202;2023-05-24T02:22:49;99226.44;;;2.03;88.19
30618;BME280;17384;51.214;9.202;2023-05-24T02:25:15;99221.25;;;2.01;89.00
30618;BME280;17384;51.214;9.202;2023-05-24T02:27:41;99220.41;;;2.01;88.83
30618;BME280;17384;51.214;9.202;2023-05-24T02:30:07;99218.63;;;1.92;88.78
30618;BME280;17384;51.214;9.202;2023-05-24T02:32:33;99208.16;;;1.98;88.64
30618;BME280;17384;51.214;9.202;2023-05-24T02:34:59;99220.63;;;1.90;88.46
30618;BME280;17384;51.214;9.202;2023-05-24T02:37:26;99222.38;;;1.81;88.44
30618;BME280;17384;51.214;9.202;2023-05-24T02:39:52;99228.31;;;1.75;88.49
30618;BME280;17384;51.214;9.202;2023-05-24T02:42:17;99215.66;;;1.67;88.86
30618;BME280;17384;51.214;9.202;2023-05-24T02:44:43;99223.59;;;1.87;89.11
30618;BME280;17384;51.214;9.202;2023-05-24T02:47:12;99219.44;;;1.75;89.74
30618;BME280;17384;51.214;9.202;2023-05-24T02:49:38;99213.53;;;1.98;89.73
30618;BME280;17384;51.214;9.202;2023-05-24T02:52:03;99215.28;;;1.90;89.84
30618;BME280;17384;51.214;9.202;2023-05-24T02:54:29;99212.09;;;1.77;90.31
30618;BME280;17384;51.214;9.202;2023-05-24T02:56:54;99214.53;;;1.70;90.42
30618;BME280;17384;51.214;9.202;2023-05-24T02:59:21;99199.69;;;1.58;90.78
30618;BME280;17384;51.214;9.202;2023-05-24T03:01:47;99198.06;;;1.47;90.87
30618;BME280;17384;51.214;9.202;2023-05-24T03:04:13;99210.59;;;1.37;91.23
30618;BME280;17384;51.214;9.202;2023-05-24T03:06:38;99196.66;;;1.43;91.67
30618;BME280;17384;51.214;9.202;2023-05-24T03:09:05;99202.00;;;1.43;91.67
30618;BME280;17384;51.214;9.202;2023-05-24T03:11:31;99205.09;;;1.48;91.72
30618;BME280;17384;51.214;9.202;2023-05-24T03:13:56;99206.78;;;1.49;91.67
30618;BME280;17384;51.214;9.202;2023-05-24T03:16:22;99201.56;;;1.48;91.90
30618;BME280;17384;51.214;9.202;2023-05-24T03:18:47;99209.84;;;1.54;92.01
30618;BME280;17384;51.214;9.202;2023-05-24T03:21:18;99191.81;;;1.56;91.80
30618;BME280;17384;51.214;9.202;2023-05-24T03:23:44;99199.69;;;1.58;91.77
30618;BME280;17384;51.214;9.202;2023-05-24T03:26:10;99208.41;;;1.60;91.46
30618;BME280;17384;51.214;9.202;2023-05-24T03:28:37;99206.88;;;1.57;90.91
30618;BME280;17384;51.214;9.202;2023-05-24T03:31:03;99222.22;;;1.55;91.03
30618;BME280;17384;51.214;9.202;2023-05-24T03:33:28;99216.03;;;1.55;91.12
30618;BME280;17384;51.214;9.202;2023-05-24T03:35:54;99226.28;;;1.59;91.07
30618;BME280;17384;51.214;9.202;2023-05-24T03:38:19;99224.47;;;1.60;91.26
30618;BME280;17384;51.214;9.202;2023-05-24T03:40:45;99230.03;;;1.66;91.33
30618;BME280;17384;51.214;9.202;2023-05-24T03:43:10;99231.88;;;1.66;91.58
30618;BME280;17384;51.214;9.202;2023-05-24T03:45:36;99221.03;;;1.67;91.58
30618;BME280;17384;51.214;9.202;2023-05-24T03:48:01;99226.78;;;1.73;91.85
30618;BME280;17384;51.214;9.202;2023-05-24T03:50:27;99231.81;;;1.76;91.96
30618;BME280;17384;51.214;9.202;2023-05-24T03:52:52;99224.19;;;1.81;92.02
30618;BME280;17384;51.214;9.202;2023-05-24T03:55:18;99225.00;;;1.91;91.41
30618;BME280;17384;51.214;9.202;2023-05-24T03:57:43;99229.31;;;1.92;91.68
30618;BME280;17384;51.214;9.202;2023-05-24T04:00:09;99227.75;;;1.99;91.58
30618;BME280;17384;51.214;9.202;2023-05-24T04:02:36;99215.91;;;2.01;91.62
30618;BME280;17384;51.214;9.202;2023-05-24T04:05:03;99230.38;;;2.09;91.86
30618;BME280;17384;51.214;9.202;2023-05-24T04:07:29;99225.56;;;2.12;91.95
30618;BME280;17384;51.214;9.202;2023-05-24T04:09:58;99233.97;;;2.17;92.08
30618;BME280;17384;51.214;9.202;2023-05-24T04:12:24;99244.75;;;2.25;92.15
30618;BME280;17384;51.214;9.202;2023-05-24T04:14:49;99246.81;;;2.31;91.96
30618;BME280;17384;51.214;9.202;2023-05-24T04:17:16;99249.44;;;2.41;92.05
30618;BME280;17384;51.214;9.202;2023-05-24T04:19:42;99244.47;;;2.46;92.15
30618;BME280;17384;51.214;9.202;2023-05-24T04:22:08;99237.47;;;2.53;92.09
30618;BME280;17384;51.214;9.202;2023-05-24T04:24:33;99248.81;;;2.65;91.73
30618;BME280;17384;51.214;9.202;2023-05-24T04:26:59;99236.94;;;2.67;91.97
30618;BME280;17384;51.214;9.202;2023-05-24T04:29:24;99252.38;;;2.73;92.13
30618;BME280;17384;51.214;9.202;2023-05-24T04:31:51;99252.44;;;2.82;92.52
30618;BME280;17384;51.214;9.202;2023-05-24T04:34:16;99248.00;;;2.90;92.39
30618;BME280;17384;51.214;9.202;2023-05-24T04:36:42;99253.44;;;2.98;92.45
30618;BME280;17384;51.214;9.202;2023-05-24T04:39:08;99256.84;;;3.09;92.79
30618;BME280;17384;51.214;9.202;2023-05-24T04:41:34;99253.97;;;3.28;92.02
30618;BME280;17384;51.214;9.202;2023-05-24T04:44:00;99253.63;;;3.31;91.50
30618;BME280;17384;51.214;9.202;2023-05-24T04:46:26;99256.66;;;3.28;91.38
30618;BME280;17384;51.214;9.202;2023-05-24T04:48:52;99240.75;;;3.34;91.60
30618;BME280;17384;51.214;9.202;2023-05-24T04:51:18;99254.22;;;3.43;91.42
30618;BME280;17384;51.214;9.202;2023-05-24T04:53:43;99240.34;;;3.47;91.75
30618;BME280;17384;51.214;9.202;2023-05-24T04:56:09;99254.81;;;3.54;91.29
30618;BME280;17384;51.214;9.202;2023-05-24T04:58:34;99246.44;;;3.65;91.95
30618;BME280;17384;51.214;9.202;2023-05-24T05:01:00;99240.81;;;3.77;91.75
30618;BME280;17384;51.214;9.202;2023-05-24T05:03:26;99232.78;;;3.85;91.87
30618;BME280;17384;51.214;9.202;2023-05-24T05:05:52;99238.91;;;4.03;91.15
30618;BME280;17384;51.214;9.202;2023-05-24T05:08:17;99232.53;;;4.04;91.31
30618;BME280;17384;51.214;9.202;2023-05-24T05:10:44;99231.84;;;4.02;91.76
30618;BME280;17384;51.214;9.202;2023-05-24T05:13:10;99241.09;;;4.07;92.03
30618;BME280;17384;51.214;9.202;2023-05-24T05:15:36;99250.00;;;4.16;92.15
30618;BME280;17384;51.214;9.202;2023-05-24T05:18:01;99247.16;;;4.26;93.00
30618;BME280;17384;51.214;9.202;2023-05-24T05:20:27;99257.09;;;4.41;93.22
30618;BME280;17384;51.214;9.202;2023-05-24T05:22:52;99242.22;;;4.63;92.02
30618;BME280;17384;51.214;9.202;2023-05-24T05:25:18;99259.16;;;4.72;91.64
30618;BME280;17384;51.214;9.202;2023-05-24T05:27:47;99252.78;;;4.65;91.07
30618;BME280;17384;51.214;9.202;2023-05-24T05:30:12;99247.72;;;4.70;91.70
30618;BME280;17384;51.214;9.202;2023-05-24T05:32:38;99247.75;;;4.78;91.08
30618;BME280;17384;51.214;9.202;2023-05-24T05:35:04;99253.81;;;4.88;90.93
30618;BME280;17384;51.214;9.202;2023-05-24T05:37:29;99255.63;;;4.96;91.13
30618;BME280;17384;51.214;9.202;2023-05-24T05:39:55;99255.97;;;5.01;90.89
30618;BME280;17384;51.214;9.202;2023-05-24T05:42:21;99242.69;;;5.07;91.56
30618;BME280;17384;51.214;9.202;2023-05-24T05:44:46;99252.59;;;5.15;91.92
30618;BME280;17384;51.214;9.202;2023-05-24T05:47:12;99250.59;;;5.17;91.96
30618;BME280;17384;51.214;9.202;2023-05-24T05:49:37;99251.72;;;5.31;92.51
30618;BME280;17384;51.214;9.202;2023-05-24T05:52:06;99243.75;;;5.54;92.71
30618;BME280;17384;51.214;9.202;2023-05-24T05:54:31;99254.63;;;5.76;92.18
30618;BME280;17384;51.214;9.202;2023-05-24T05:56:57;99242.47;;;5.97;91.04
30618;BME280;17384;51.214;9.202;2023-05-24T05:59:22;99249.78;;;6.19;89.73
30618;BME280;17384;51.214;9.202;2023-05-24T06:01:48;99267.03;;;6.33;88.59
30618;BME280;17384;51.214;9.202;2023-05-24T06:04:14;99261.06;;;6.45;88.47
30618;BME280;17384;51.214;9.202;2023-05-24T06:06:40;99269.47;;;6.51;87.80
30618;BME280;17384;51.214;9.202;2023-05-24T06:09:06;99261.97;;;6.61;87.22
30618;BME280;17384;51.214;9.202;2023-05-24T06:11:32;99273.91;;;6.66;86.36
30618;BME280;17384;51.214;9.202;2023-05-24T06:13:57;99278.88;;;6.77;85.84
30618;BME280;17384;51.214;9.202;2023-05-24T06:16:23;99270.34;;;6.89;85.46
30618;BME280;17384;51.214;9.202;2023-05-24T06:18:48;99261.25;;;6.90;84.76
30618;BME280;17384;51.214;9.202;2023-05-24T06:21:14;99280.25;;;6.96;84.58
30618;BME280;17384;51.214;9.202;2023-05-24T06:23:40;99269.69;;;7.09;83.25
30618;BME280;17384;51.214;9.202;2023-05-24T06:26:05;99283.19;;;7.09;83.68
30618;BME280;17384;51.214;9.202;2023-05-24T06:28:35;99274.88;;;7.34;83.18
30618;BME280;17384;51.214;9.202;2023-05-24T06:31:02;99281.97;;;7.50;82.17
30618;BME280;17384;51.214;9.202;2023-05-24T06:33:28;99276.75;;;7.48;81.67
30618;BME280;17384;51.214;9.202;2023-05-24T06:35:53;99283.28;;;7.54;81.07
30618;BME280;17384;51.214;9.202;2023-05-24T06:38:18;99292.25;;;7.84;80.83
30618;BME280;17384;51.214;9.202;2023-05-24T06:40:44;99296.91;;;7.90;79.84
30618;BME280;17384;51.214;9.202;2023-05-24T06:43:10;99295.03;;;8.05;79.52
30618;BME280;17384;51.214;9.202;2023-05-24T06:45:35;99304.72;;;8.14;79.07
30618;BME280;17384;51.214;9.202;2023-05-24T06:48:01;99303.69;;;8.44;78.94
30618;BME280;17384;51.214;9.202;2023-05-24T06:50:27;99310.06;;;8.58;77.43
30618;BME280;17384;51.214;9.202;2023-05-24T06:52:52;99306.69;;;8.71;76.80
30618;BME280;17384;51.214;9.202;2023-05-24T06:55:18;99306.38;;;8.80;76.43
30618;BME280;17384;51.214;9.202;2023-05-24T06:57:44;99302.81;;;8.80;75.46
30618;BME280;17384;51.214;9.202;2023-05-24T07:00:10;99305.16;;;8.83;74.75
30618;BME280;17384;51.214;9.202;2023-05-24T07:02:40;99302.06;;;8.86;75.32
30618;BME280;17384;51.214;9.202;2023-05-24T07:05:06;99296.81;;;8.63;75.24
30618;BME280;17384;51.214;9.202;2023-05-24T07:07:40;99313.91;;;8.85;74.88
30618;BME280;17384;51.214;9.202;2023-05-24T07:10:07;99314.56;;;9.08;73.48
30618;BME280;17384;51.214;9.202;2023-05-24T07:12:34;99310.97;;;9.23;73.06
30618;BME280;17384;51.214;9.202;2023-05-24T07:15:00;99316.47;;;9.36;72.95
30618;BME280;17384;51.214;9.202;2023-05-24T07:17:25;99310.22;;;9.57;72.00
30618;BME280;17384;51.214;9.202;2023-05-24T07:19:51;99310.09;;;9.71;70.72
30618;BME280;17384;51.214;9.202;2023-05-24T07:22:16;99315.53;;;9.71;70.84
30618;BME280;17384;51.214;9.202;2023-05-24T07:24:42;99316.28;;;9.93;70.07
30618;BME280;17384;51.214;9.202;2023-05-24T07:27:08;99305.16;;;10.09;68.76
30618;BME280;17384;51.214;9.202;2023-05-24T07:29:33;99315.84;;;9.90;67.88
30618;BME280;17384;51.214;9.202;2023-05-24T07:31:59;99312.75;;;9.93;67.95
30618;BME280;17384;51.214;9.202;2023-05-24T07:34:25;99321.50;;;10.23;67.59
30618;BME280;17384;51.214;9.202;2023-05-24T07:36:52;99312.47;;;10.15;66.97
30618;BME280;17384;51.214;9.202;2023-05-24T07:39:17;99314.41;;;10.22;64.84
30618;BME280;17384;51.214;9.202;2023-05-24T07:41:43;99305.28;;;10.29;64.81
30618;BME280;17384;51.214;9.202;2023-05-24T07:44:09;99302.59;;;10.42;64.04
30618;BME280;17384;51.214;9.202;2023-05-24T07:46:36;99300.94;;;10.41;64.10
30618;BME280;17384;51.214;9.202;2023-05-24T07:49:02;99298.28;;;10.55;62.43
30618;BME280;17384;51.214;9.202;2023-05-24T07:51:27;99301.19;;;10.53;62.06
30618;BME280;17384;51.214;9.202;2023-05-24T07:53:53;99294.22;;;10.98;61.58
30618;BME280;17384;51.214;9.202;2023-05-24T07:56:18;99292.19;;;11.33;60.72
30618;BME280;17384;51.214;9.202;2023-05-24T07:58:44;99298.25;;;11.42;60.91
30618;BME280;17384;51.214;9.202;2023-05-24T08:01:11;99305.41;;;12.40;59.08
30618;BME280;17384;51.214;9.202;2023-05-24T08:03:37;99305.81;;;13.27;58.05
30618;BME280;17384;51.214;9.202;2023-05-24T08:06:04;99308.22;;;13.91;55.83
30618;BME280;17384;51.214;9.202;2023-05-24T08:08:29;99300.78;;;12.92;55.46
30618;BME280;17384;51.214;9.202;2023-05-24T08:10:55;99312.03;;;12.00;56.70
30618;BME280;17384;51.214;9.202;2023-05-24T08:13:20;99302.81;;;11.54;58.10
30618;BME280;17384;51.214;9.202;2023-05-24T08:15:46;99303.03;;;11.53;59.17
30618;BME280;17384;51.214;9.202;2023-05-24T08:18:11;99312.88;;;11.67;58.96
30618;BME280;17384;51.214;9.202;2023-05-24T08:20:37;99313.66;;;12.14;57.76
30618;BME280;17384;51.214;9.202;2023-05-24T08:23:02;99311.34;;;12.75;57.08
30618;BME280;17384;51.214;9.202;2023-05-24T08:25:28;99317.38;;;12.84;55.29
30618;BME280;17384;51.214;9.202;2023-05-24T08:27:53;99324.09;;;12.81;55.38
30618;BME280;17384;51.214;9.202;2023-05-24T08:30:21;99319.50;;;12.82;55.86
30618;BME280;17384;51.214;9.202;2023-05-24T08:32:47;99327.03;;;12.29;55.29
30618;BME280;17384;51.214;9.202;2023-05-24T08:35:13;99333.13;;;12.11;56.65
30618;BME280;17384;51.214;9.202;2023-05-24T08:37:38;99314.75;;;11.80;56.47
30618;BME280;17384;51.214;9.202;2023-05-24T08:40:04;99327.72;;;11.78;56.05
30618;BME280;17384;51.214;9.202;2023-05-24T08:42:31;99315.16;;;11.97;55.13
30618;BME280;17384;51.214;9.202;2023-05-24T08:45:02;99329.44;;;12.57;54.94
30618;BME280;17384;51.214;9.202;2023-05-24T08:47:28;99327.53;;;13.40;53.81
30618;BME280;17384;51.214;9.202;2023-05-24T08:49:55;99320.31;;;13.52;53.71
30618;BME280;17384;51.214;9.202;2023-05-24T08:52:21;99325.94;;;13.26;54.08
30618;BME280;17384;51.214;9.202;2023-05-24T08:54:48;99321.03;;;13.03;54.82
30618;BME280;17384;51.214;9.202;2023-05-24T08:57:15;99337.91;;;12.22;56.06
30618;BME280;17384;51.214;9.202;2023-05-24T08:59:41;99336.50;;;11.86;56.80
30618;BME280;17384;51.214;9.202;2023-05-24T09:02:10;99338.97;;;12.08;57.69
30618;BME280;17384;51.214;9.202;2023-05-24T09:04:41;99331.25;;;12.05;57.87
30618;BME280;17384;51.214;9.202;2023-05-24T09:07:09;99326.84;;;12.10;58.62
30618;BME280;17384;51.214;9.202;2023-05-24T09:09:38;99327.03;;;12.22;57.54
30618;BME280;17384;51.214;9.202;2023-05-24T09:12:10;99316.81;;;12.04;56.86
30618;BME280;17384;51.214;9.202;2023-05-24T09:14:42;99322.22;;;12.24;57.76
30618;BME280;17384;51.214;9.202;2023-05-24T09:17:10;99331.56;;;12.48;56.34
30618;BME280;17384;51.214;9.202;2023-05-24T09:19:37;99324.66;;;12.52;56.83
30618;BME280;17384;51.214;9.202;2023-05-24T09:22:05;99319.34;;;13.08;54.47
30618;BME280;17384;51.214;9.202;2023-05-24T09:24:39;99329.94;;;12.85;55.32
30618;BME280;17384;51.214;9.202;2023-05-24T09:27:05;99327.91;;;12.74;56.02
30618;BME280;17384;51.214;9.202;2023-05-24T09:29:34;99325.41;;;12.66;56.53
30618;BME280;17384;51.214;9.202;2023-05-24T09:32:00;99329.56;;;12.75;55.24
30618;BME280;17384;51.214;9.202;2023-05-24T09:34:26;99331.56;;;12.41;56.18
30618;BME280;17384;51.214;9.202;2023-05-24T09:36:51;99326.09;;;12.99;54.19
30618;BME280;17384;51.214;9.202;2023-05-24T09:39:18;99333.19;;;13.07;52.77
30618;BME280;17384;51.214;9.202;2023-05-24T09:41:51;99332.19;;;13.33;52.23
30618;BME280;17384;51.214;9.202;2023-05-24T09:44:25;99318.66;;;12.81;52.84
30618;BME280;17384;51.214;9.202;2023-05-24T09:47:01;99321.59;;;12.80;53.76
30618;BME280;17384;51.214;9.202;2023-05-24T09:49:29;99319.50;;;12.82;54.72
30618;BME280;17384;51.214;9.202;2023-05-24T09:51:55;99317.31;;;12.91;53.88
30618;BME280;17384;51.214;9.202;2023-05-24T09:54:20;99315.50;;;13.47;52.03
30618;BME280;17384;51.214;9.202;2023-05-24T09:56:46;99315.34;;;13.92;49.82
30618;BME280;17384;51.214;9.202;2023-05-24T09:59:11;99318.72;;;14.12;49.12
30618;BME280;17384;51.214;9.202;2023-05-24T10:01:38;99310.69;;;13.49;49.45
30618;BME280;17384;51.214;9.202;2023-05-24T10:04:03;99317.59;;;14.20;49.52
30618;BME280;17384;51.214;9.202;2023-05-24T10:06:35;99306.19;;;14.05;49.65
30618;BME280;17384;51.214;9.202;2023-05-24T10:09:04;99304.75;;;14.02;49.78
30618;BME280;17384;51.214;9.202;2023-05-24T10:11:35;99305.88;;;13.70;49.81
30618;BME280;17384;51.214;9.202;2023-05-24T10:14:04;99313.41;;;13.74;50.73
30618;BME280;17384;51.214;9.202;2023-05-24T10:16:31;99312.59;;;13.17;49.63
30618;BME280;17384;51.214;9.202;2023-05-24T10:18:58;99326.94;;;12.93;51.58
30618;BME280;17384;51.214;9.202;2023-05-24T10:21:23;99325.22;;;13.05;51.56
30618;BME280;17384;51.214;9.202;2023-05-24T10:23:56;99318.69;;;13.44;50.46
30618;BME280;17384;51.214;9.202;2023-05-24T10:26:23;99319.75;;;13.68;49.57
30618;BME280;17384;51.214;9.202;2023-05-24T10:28:54;99327.97;;;13.86;50.08
30618;BME280;17384;51.214;9.202;2023-05-24T10:31:40;99314.69;;;15.18;48.90
30618;BME280;17384;51.214;9.202;2023-05-24T10:34:06;99321.63;;;16.09;49.85
30618;BME280;17384;51.214;9.202;2023-05-24T10:36:33;99334.13;;;16.05;46.79
30618;BME280;17384;51.214;9.202;2023-05-24T10:38:59;99317.91;;;15.56;45.89
30618;BME280;17384;51.214;9.202;2023-05-24T10:41:25;99329.25;;;14.82;46.71
30618;BME280;17384;51.214;9.202;2023-05-24T10:43:56;99322.22;;;14.38;46.69
30618;BME280;17384;51.214;9.202;2023-05-24T10:46:21;99319.34;;;13.89;48.27
30618;BME280;17384;51.214;9.202;2023-05-24T10:49:00;99314.28;;;13.68;48.30
30618;BME280;17384;51.214;9.202;2023-05-24T10:51:30;99318.06;;;15.32;46.41
30618;BME280;17384;51.214;9.202;2023-05-24T10:54:18;99304.38;;;16.72;43.12
30618;BME280;17384;51.214;9.202;2023-05-24T10:56:48;99315.06;;;17.58;41.72
30618;BME280;17384;51.214;9.202;2023-05-24T10:59:31;99308.44;;;18.43;38.46
30618;BME280;17384;51.214;9.202;2023-05-24T11:01:59;99314.75;;;18.82;36.93
30618;BME280;17384;51.214;9.202;2023-05-24T11:04:32;99305.91;;;18.58;37.23
30618;BME280;17384;51.214;9.202;2023-05-24T11:07:03;99299.88;;;17.84;38.27
30618;BME280;17384;51.214;9.202;2023-05-24T11:09:29;99308.50;;;17.43;38.67
30618;BME280;17384;51.214;9.202;2023-05-24T11:12:03;99310.22;;;16.75;40.08
30618;BME280;17384;51.214;9.202;2023-05-24T11:14:34;99298.03;;;16.19;42.00
30618;BME280;17384;51.214;9.202;2023-05-24T11:17:00;99296.59;;;16.17;41.18
30618;BME280;17384;51.214;9.202;2023-05-24T11:19:52;99315.31;;;15.73;41.91
30618;BME280;17384;51.214;9.202;2023-05-24T11:22:19;99310.78;;;14.66;43.49
30618;BME280;17384;51.214;9.202;2023-05-24T11:24:45;99313.75;;;14.94;43.96
30618;BME280;17384;51.214;9.202;2023-05-24T11:27:12;99319.31;;;15.17;43.41
30618;BME280;17384;51.214;9.202;2023-05-24T11:29:45;99317.78;;;14.43;45.56
30618;BME280;17384;51.214;9.202;2023-05-24T11:32:19;99313.47;;;14.29;47.82
30618;BME280;17384;51.214;9.202;2023-05-24T11:34:48;99309.00;;;14.35;47.47
30618;BME280;17384;51.214;9.202;2023-05-24T11:37:14;99316.09;;;14.42;47.83
30618;BME280;17384;51.214;9.202;2023-05-24T11:39:40;99322.22;;;14.38;48.10
30618;BME280;17384;51.214;9.202;2023-05-24T11:42:07;99325.09;;;14.61;47.92
30618;BME280;17384;51.214;9.202;2023-05-24T11:44:34;99325.16;;;14.91;47.12
30618;BME280;17384;51.214;9.202;2023-05-24T11:47:04;99309.41;;;15.46;45.72
30618;BME280;17384;51.214;9.202;2023-05-24T11:49:30;99308.88;;;15.56;46.28
30618;BME280;17384;51.214;9.202;2023-05-24T11:51:57;99316.38;;;15.72;47.34
30618;BME280;17384;51.214;9.202;2023-05-24T11:54:24;99322.09;;;15.29;46.33
30618;BME280;17384;51.214;9.202;2023-05-24T11:56:52;99329.53;;;14.92;47.98
30618;BME280;17384;51.214;9.202;2023-05-24T11:59:25;99325.91;;;14.80;47.91
30618;BME280;17384;51.214;9.202;2023-05-24T12:01:57;99306.56;;;15.11;46.68
30618;BME280;17384;51.214;9.202;2023-05-24T12:04:24;99317.34;;;15.06;47.17
30618;BME280;17384;51.214;9.202;2023-05-24T12:06:49;99319.41;;;14.63;48.43
30618;BME280;17384;51.214;9.202;2023-05-24T12:09:15;99313.28;;;14.67;48.04
30618;BME280;17384;51.214;9.202;2023-05-24T12:11:44;99309.22;;;14.88;47.79
30618;BME280;17384;51.214;9.202;2023-05-24T12:14:14;99309.50;;;15.40;48.39
30618;BME280;17384;51.214;9.202;2023-05-24T12:16:44;99307.56;;;16.29;46.37
30618;BME280;17384;51.214;9.202;2023-05-24T12:19:19;99311.19;;;16.57;44.59
30618;BME280;17384;51.214;9.202;2023-05-24T12:21:46;99304.13;;;16.85;43.66
30618;BME280;17384;51.214;9.202;2023-05-24T12:24:18;99303.03;;;17.14;43.97
30618;BME280;17384;51.214;9.202;2023-05-24T12:26:47;99303.78;;;16.81;44.04
30618;BME280;17384;51.214;9.202;2023-05-24T12:29:13;99300.53;;;16.33;44.53
30618;BME280;17384;51.214;9.202;2023-05-24T12:31:40;99297.94;;;15.91;43.78
30618;BME280;17384;51.214;9.202;2023-05-24T12:34:09;99293.88;;;15.70;45.91
30618;BME280;17384;51.214;9.202;2023-05-24T12:36:35;99295.09;;;15.86;45.76
30618;BME280;17384;51.214;9.202;2023-05-24T12:39:18;99290.88;;;16.94;45.42
30618;BME280;17384;51.214;9.202;2023-05-24T12:41:44;99288.63;;;17.36;43.59
30618;BME280;17384;51.214;9.202;2023-05-24T12:44:12;99285.72;;;17.59;43.80
30618;BME280;17384;51.214;9.202;2023-05-24T12:46:38;99296.41;;;17.27;43.07
30618;BME280;17384;51.214;9.202;2023-05-24T12:49:04;99286.06;;;17.63;41.03
30618;BME280;17384;51.214;9.202;2023-05-24T12:51:30;99286.38;;;17.04;43.21
30618;BME280;17384;51.214;9.202;2023-05-24T12:53:55;99291.84;;;16.87;43.85
30618;BME280;17384;51.214;9.202;2023-05-24T12:56:21;99296.72;;;16.34;44.65
30618;BME280;17384;51.214;9.202;2023-05-24T12:58:49;99292.59;;;15.84;45.38
30618;BME280;17384;51.214;9.202;2023-05-24T13:01:15;99289.91;;;15.43;46.84
30618;BME280;17384;51.214;9.202;2023-05-24T13:03:40;99291.09;;;16.64;45.57
30618;BME280;17384;51.214;9.202;2023-05-24T13:06:06;99281.25;;;16.79;44.81
30618;BME280;17384;51.214;9.202;2023-05-24T13:08:31;99286.31;;;17.44;44.04
30618;BME280;17384;51.214;9.202;2023-05-24T13:10:57;99279.13;;;17.26;43.84
30618;BME280;17384;51.214;9.202;2023-05-24T13:13:23;99284.13;;;17.01;45.70
30618;BME280;17384;51.214;9.202;2023-05-24T13:15:49;99295.69;;;16.75;46.06